Kinmount, Minnesota
Current Conditions -  °F | °C
As of 8:33 AM on Sunday 21 Dec 2014 (Local Time) from KORB Reporting Station
Haze Haze  
Wind Chill: 19°   Ceiling: 500
Heat Index: 28°   Visibility: 5mi
Dew Point: 25°   Wind: 10mph
Humidity: 86%   Direction: 160°SSE
Pressure: 29.8"   Gusts: 16mph
Location:  48.1455°N, 92.8504°W
Report Text: KORB 211433Z AUTO 16009G14KT 5SM BR OVC005 M02/M04 A2980 RMK AO2
Loading
Personal Weather Stations






























Interactive Weather Map New forecast layout! Learn more

10-Day Weather Forecast

Advertisements
Track Severe Weather on mobile